createdAt,value
2023-02-23T00:03:27.419Z,5.28
2023-02-23T00:08:35.823Z,5.47
2023-02-23T00:13:42.487Z,5.42
2023-02-23T00:18:50.963Z,5.28
2023-02-23T00:23:57.983Z,5.18
2023-02-23T00:29:05.134Z,5.34
2023-02-23T00:34:09.518Z,5.19
2023-02-23T00:39:18.583Z,5.22
2023-02-23T00:44:25.643Z,4.59
2023-02-23T00:49:29.893Z,4.47
2023-02-23T00:54:34.164Z,4.30
2023-02-23T00:59:40.139Z,4.47
2023-02-23T01:04:44.526Z,4.79
2023-02-23T01:09:50.974Z,5.01
2023-02-23T01:14:56.392Z,4.79
2023-02-23T01:20:00.378Z,4.48
2023-02-23T01:25:04.460Z,3.96
2023-02-23T01:30:15.747Z,4.00
2023-02-23T01:35:22.452Z,4.07
2023-02-23T01:40:30.018Z,4.35
2023-02-23T01:45:40.621Z,4.33
2023-02-23T01:50:50.420Z,4.17
2023-02-23T01:55:58.625Z,4.10
2023-02-23T02:01:04.642Z,4.25
2023-02-23T02:06:11.087Z,4.20
2023-02-23T02:11:30.949Z,4.00
2023-02-23T02:16:42.858Z,3.91
2023-02-23T02:22:17.166Z,3.74
2023-02-23T02:27:32.732Z,3.38
2023-02-23T02:33:00.626Z,3.45
2023-02-23T02:38:19.368Z,3.77
2023-02-23T02:43:31.422Z,3.99
2023-02-23T02:48:43.497Z,3.44
2023-02-23T02:53:57.513Z,3.23
2023-02-23T02:59:01.578Z,3.33
2023-02-23T03:04:40.605Z,3.21
2023-02-23T03:10:12.036Z,3.49
2023-02-23T03:15:45.960Z,3.66
2023-02-23T03:21:13.018Z,4.02
2023-02-23T03:26:42.981Z,3.81
2023-02-23T03:32:09.908Z,3.75
2023-02-23T03:37:37.143Z,3.75
2023-02-23T03:43:03.883Z,3.84
2023-02-23T03:48:30.148Z,3.92
2023-02-23T03:54:00.375Z,3.70
2023-02-23T03:59:25.271Z,3.47
2023-02-23T04:04:47.883Z,3.75
2023-02-23T04:10:09.480Z,3.66
2023-02-23T04:15:18.311Z,3.67
2023-02-23T04:20:23.090Z,3.38
2023-02-23T04:25:28.510Z,3.03
2023-02-23T04:30:33.969Z,3.11
2023-02-23T04:35:38.642Z,2.72
2023-02-23T04:40:42.909Z,2.50
2023-02-23T04:45:51.056Z,2.42
2023-02-23T04:50:55.930Z,2.67
2023-02-23T04:55:59.971Z,2.72
2023-02-23T05:01:10.831Z,2.88
2023-02-23T05:06:15.457Z,2.74
2023-02-23T05:11:20.367Z,3.06
2023-02-23T05:16:28.221Z,3.09
2023-02-23T05:21:32.348Z,3.13
2023-02-23T05:26:36.341Z,3.01
2023-02-23T05:31:41.875Z,3.09
2023-02-23T05:36:46.202Z,3.20
2023-02-23T05:41:50.672Z,3.21
2023-02-23T05:46:59.379Z,2.98
2023-02-23T05:52:03.568Z,3.25
2023-02-23T05:57:08.545Z,3.41
2023-02-23T06:02:14.862Z,3.47
2023-02-23T06:07:19.033Z,3.96
2023-02-23T06:12:24.083Z,4.19
2023-02-23T06:17:29.939Z,4.30
2023-02-23T06:22:35.654Z,4.53
2023-02-23T06:27:40.268Z,4.98
2023-02-23T06:32:46.056Z,5.86
2023-02-23T06:37:55.854Z,6.36
2023-02-23T06:43:00.596Z,6.69
2023-02-23T06:48:06.917Z,7.41
2023-02-23T06:53:11.019Z,7.90
2023-02-23T06:58:16.008Z,8.24
2023-02-23T07:03:21.775Z,9.05
2023-02-23T07:08:26.181Z,9.67
2023-02-23T07:13:30.893Z,10.18
2023-02-23T07:18:36.782Z,11.13
2023-02-23T07:23:42.313Z,11.36
2023-02-23T07:28:46.771Z,11.87
2023-02-23T07:33:53.162Z,12.79
2023-02-23T07:38:57.789Z,13.58
2023-02-23T07:44:02.497Z,13.81
2023-02-23T07:49:08.091Z,14.15
2023-02-23T07:54:13.806Z,14.69
2023-02-23T07:59:18.643Z,15.53
2023-02-23T08:04:25.738Z,15.40
2023-02-23T08:09:31.019Z,16.04
2023-02-23T08:14:36.715Z,16.61
2023-02-23T08:19:44.227Z,16.85
2023-02-23T08:24:49.086Z,16.97
2023-02-23T08:29:57.343Z,17.01
2023-02-23T08:35:03.685Z,16.60
2023-02-23T08:40:10.223Z,16.79
2023-02-23T08:45:14.763Z,16.73
2023-02-23T08:50:20.780Z,17.27
2023-02-23T08:55:24.927Z,17.25
2023-02-23T09:00:29.380Z,17.56
2023-02-23T09:05:38.942Z,17.80
2023-02-23T09:10:45.082Z,17.95
2023-02-23T09:15:49.822Z,18.45
2023-02-23T09:20:55.688Z,19.35
2023-02-23T09:26:04.351Z,19.58
2023-02-23T09:31:09.874Z,20.17
2023-02-23T09:36:18.258Z,20.15
2023-02-23T09:41:55.256Z,20.39
2023-02-23T09:47:12.228Z,19.43
2023-02-23T09:52:22.376Z,19.66
2023-02-23T09:57:35.003Z,19.80
2023-02-23T10:02:53.317Z,19.80
2023-02-23T10:08:05.321Z,20.26
2023-02-23T10:13:16.777Z,20.68
2023-02-23T10:18:45.775Z,20.73
2023-02-23T10:23:58.881Z,21.47
2023-02-23T10:29:03.171Z,22.61
2023-02-23T10:34:14.959Z,22.28
2023-02-23T10:39:21.759Z,22.19
2023-02-23T10:44:28.598Z,22.51
2023-02-23T10:49:40.722Z,22.47
2023-02-23T10:54:48.666Z,22.74
2023-02-23T11:00:21.487Z,22.40
2023-02-23T11:05:38.610Z,21.80
2023-02-23T11:10:44.455Z,21.56
2023-02-23T11:15:50.907Z,22.01
2023-02-23T11:20:56.757Z,22.37
2023-02-23T11:26:04.893Z,21.78
2023-02-23T11:31:17.608Z,22.61
2023-02-23T11:36:30.704Z,22.39
2023-02-23T11:41:37.554Z,22.26
2023-02-23T11:46:45.958Z,21.33
2023-02-23T11:51:55.281Z,21.92
2023-02-23T11:57:03.091Z,21.95
2023-02-23T12:02:23.256Z,21.98
2023-02-23T12:07:42.421Z,21.52
2023-02-23T12:12:56.111Z,21.34
2023-02-23T12:18:06.908Z,20.81
2023-02-23T12:23:16.021Z,20.96
2023-02-23T12:28:28.445Z,20.78
2023-02-23T12:33:38.742Z,20.09
2023-02-23T12:38:52.146Z,20.09
2023-02-23T12:44:07.774Z,19.96
2023-02-23T12:49:19.694Z,19.67
2023-02-23T12:54:24.051Z,19.56
2023-02-23T12:59:55.407Z,19.38
2023-02-23T13:05:18.027Z,19.01
2023-02-23T13:10:31.900Z,18.71
2023-02-23T13:15:48.314Z,19.13
2023-02-23T13:20:57.626Z,18.65
2023-02-23T13:26:13.049Z,18.30
2023-02-23T13:31:28.474Z,18.03
2023-02-23T13:36:35.664Z,18.57
2023-02-23T13:41:44.318Z,18.18
2023-02-23T13:46:55.845Z,18.05
2023-02-23T13:52:11.251Z,17.99
2023-02-23T13:57:17.729Z,17.59
2023-02-23T14:02:34.744Z,17.40
2023-02-23T14:07:45.075Z,17.09
2023-02-23T14:13:06.627Z,17.23
2023-02-23T14:18:33.769Z,16.94
2023-02-23T14:23:51.862Z,16.81
2023-02-23T14:29:28.860Z,16.43
2023-02-23T14:34:54.194Z,15.63
2023-02-23T14:40:05.940Z,15.15
2023-02-23T14:45:20.735Z,14.53
2023-02-23T14:50:30.017Z,13.99
2023-02-23T14:55:36.834Z,13.75
2023-02-23T15:00:44.242Z,13.15
2023-02-23T15:05:57.189Z,12.98
2023-02-23T15:11:04.715Z,12.93
2023-02-23T15:16:16.979Z,12.60
2023-02-23T15:21:26.969Z,12.43
2023-02-23T15:26:34.797Z,12.10
2023-02-23T15:31:43.323Z,12.34
2023-02-23T15:36:53.897Z,12.19
2023-02-23T15:41:59.290Z,12.19
2023-02-23T15:47:07.464Z,12.23
2023-02-23T15:52:21.815Z,12.28
2023-02-23T15:57:31.170Z,12.14
2023-02-23T16:02:37.590Z,11.69
2023-02-23T16:07:44.366Z,11.88
2023-02-23T16:12:52.199Z,12.14
2023-02-23T16:17:59.871Z,12.02
2023-02-23T16:23:08.061Z,11.90
2023-02-23T16:28:19.060Z,11.74
2023-02-23T16:33:25.852Z,11.87
2023-02-23T16:38:38.280Z,11.83
2023-02-23T16:43:42.703Z,11.79
2023-02-23T16:48:47.809Z,11.61
2023-02-23T16:53:54.896Z,11.69
2023-02-23T16:59:04.004Z,11.85
2023-02-23T17:04:17.262Z,11.67
2023-02-23T17:09:24.758Z,11.86
2023-02-23T17:14:32.322Z,11.58
2023-02-23T17:19:38.202Z,11.24
2023-02-23T17:24:45.647Z,11.43
2023-02-23T17:29:51.663Z,11.33
2023-02-23T17:34:59.679Z,11.06
2023-02-23T17:40:08.640Z,11.04
2023-02-23T17:45:14.205Z,11.08
2023-02-23T17:50:20.050Z,11.16
2023-02-23T17:55:29.788Z,11.05
2023-02-23T18:00:38.844Z,10.93
2023-02-23T18:05:44.729Z,10.97
2023-02-23T18:10:56.586Z,10.84
2023-02-23T18:16:03.748Z,10.84
2023-02-23T18:21:14.039Z,10.83
2023-02-23T18:26:24.527Z,10.78
2023-02-23T18:31:32.468Z,10.48
2023-02-23T18:36:39.945Z,10.61
2023-02-23T18:41:48.105Z,10.40
2023-02-23T18:46:53.189Z,10.38
2023-02-23T18:51:58.270Z,10.26
2023-02-23T18:57:08.533Z,10.20
2023-02-23T19:02:13.085Z,10.07
2023-02-23T19:07:18.902Z,10.06
2023-02-23T19:12:26.819Z,9.79
2023-02-23T19:17:34.089Z,10.05
2023-02-23T19:22:38.733Z,10.06
2023-02-23T19:27:45.337Z,9.74
2023-02-23T19:32:50.071Z,10.05
2023-02-23T19:37:58.806Z,9.63
2023-02-23T19:43:04.683Z,9.53
2023-02-23T19:48:09.964Z,9.56
2023-02-23T19:53:15.202Z,9.22
2023-02-23T19:58:21.044Z,9.51
2023-02-23T20:03:28.344Z,9.46
2023-02-23T20:08:33.372Z,9.63
2023-02-23T20:13:40.462Z,9.56
2023-02-23T20:18:46.541Z,9.89
2023-02-23T20:23:51.244Z,9.28
2023-02-23T20:28:58.134Z,8.99
2023-02-23T20:34:04.720Z,8.89
2023-02-23T20:39:10.443Z,8.96
2023-02-23T20:44:17.592Z,8.38
2023-02-23T20:49:23.836Z,8.20
2023-02-23T20:54:28.038Z,8.28
2023-02-23T20:59:34.178Z,8.03
2023-02-23T21:04:39.494Z,7.83
2023-02-23T21:09:44.620Z,7.81
2023-02-23T21:14:51.685Z,7.74
2023-02-23T21:19:59.006Z,7.77
2023-02-23T21:25:04.194Z,7.90
2023-02-23T21:30:17.253Z,7.96
2023-02-23T21:35:25.350Z,8.08
2023-02-23T21:40:29.806Z,8.02
2023-02-23T21:45:35.436Z,7.98
2023-02-23T21:50:39.516Z,7.94
2023-02-23T21:55:43.752Z,7.97
2023-02-23T22:00:49.373Z,7.90
2023-02-23T22:05:53.694Z,7.90
2023-02-23T22:10:58.621Z,8.06
2023-02-23T22:16:05.859Z,8.03
2023-02-23T22:21:13.187Z,8.09
2023-02-23T22:26:19.682Z,8.34
2023-02-23T22:31:26.110Z,8.25
2023-02-23T22:36:31.729Z,8.05
2023-02-23T22:41:42.941Z,7.90
2023-02-23T22:46:50.077Z,7.81
2023-02-23T22:51:54.565Z,7.82
2023-02-23T22:56:59.323Z,7.77
2023-02-23T23:02:06.110Z,7.79
2023-02-23T23:07:10.798Z,7.68
2023-02-23T23:12:14.845Z,7.78
2023-02-23T23:17:22.700Z,7.67
2023-02-23T23:22:27.464Z,7.74
2023-02-23T23:27:33.406Z,7.87
2023-02-23T23:32:40.937Z,8.00
2023-02-23T23:37:45.571Z,8.15
2023-02-23T23:42:49.617Z,7.83
2023-02-23T23:47:55.130Z,7.91
2023-02-23T23:52:59.585Z,7.87
2023-02-23T23:58:06.201Z,7.89
